X  Luk Metar data     EKVJ Stauning Airport
Temperatur
18°C Temperatur
18°C Duggpunkt
100% Fugtighed



Vind
5 M/S
12 MPT
19 KM/T
10 KNOB



210°
SSV
Nuværende forhold

Delvis skyet Delvis skyet
Tryk 999.92 (hPa) - 29.53 (inHg)
Sigt 6.2 (mil) - 10 (km)
Lufthavn
Lufthavnskode EKVJ

Lokation: Stauning Airport
Afstand: 14 (km)

Metar:
EKVJ 231350Z 21010KT 9999 FEW015 FEW020CB SCT140 18/18 Q1000

Tid: 09-23-2020 15:50 CEST